Time;durP1;ratioP1;P1;durP2;ratioP2;P2;SDS_P1;SDS_P2;PMS_P1;PMS_P2;Temp;Humidity;BMP_temperature;BMP_pressure;BME280_temperature;BME280_humidity;BME280_pressure;Samples;Min_cycle;Max_cycle;Signal;HPM_P1;HPM_P2
2022/09/15 00:00:28;;;;;;;7.40;1.60;;;;;;;12.45;80.40;98299.97;105148;1271;59690;-74
2022/09/15 00:03:34;;;;;;;8.40;1.80;;;;;;;12.44;80.49;98299.01;105279;1271;61088;-74
2022/09/15 00:06:22;;;;;;;8.60;1.70;;;;;;;12.43;80.67;98298.59;105296;1271;73000;-75
2022/09/15 00:09:10;;;;;;;8.20;1.80;;;;;;;12.42;80.74;98294.55;105054;1271;68767;-74
2022/09/15 00:11:58;;;;;;;9.40;1.70;;;;;;;12.43;80.97;98290.94;105037;1271;72607;-75
2022/09/15 00:14:46;;;;;;;7.40;1.70;;;;;;;12.41;81.20;98285.85;105353;1271;59671;-74
2022/09/15 00:17:34;;;;;;;8.30;1.60;;;;;;;12.38;81.48;98283.30;105154;1271;59650;-75
2022/09/15 00:20:22;;;;;;;7.80;1.70;;;;;;;12.35;81.86;98282.49;105016;1271;72220;-74
2022/09/15 00:23:13;;;;;;;7.20;1.90;;;;;;;12.30;82.11;98277.88;105404;1271;67322;-75
2022/09/15 00:26:06;;;;;;;7.80;1.80;;;;;;;12.25;82.47;98278.59;105038;1271;73470;-74
2022/09/15 00:28:57;;;;;;;9.90;1.90;;;;;;;12.20;82.98;98278.23;105141;1269;59690;-75
2022/09/15 00:31:45;;;;;;;6.80;1.60;;;;;;;12.17;83.01;98278.36;105115;1271;60218;-75
2022/09/15 00:34:33;;;;;;;5.80;1.50;;;;;;;12.15;82.93;98275.44;105127;1271;74803;-76
2022/09/15 00:37:21;;;;;;;11.40;2.00;;;;;;;12.14;83.34;98272.58;104962;1271;67392;-75
2022/09/15 00:40:09;;;;;;;8.30;1.80;;;;;;;12.12;83.38;98273.68;105110;1271;74446;-75
2022/09/15 00:42:57;;;;;;;7.60;1.90;;;;;;;12.07;84.00;98272.73;105155;1271;59744;-74
2022/09/15 00:45:45;;;;;;;8.10;1.90;;;;;;;12.03;84.26;98270.52;105119;1271;60576;-75
2022/09/15 00:48:36;;;;;;;10.40;1.90;;;;;;;11.98;84.66;98267.40;104906;1271;73066;-72
2022/09/15 00:51:40;;;;;;;7.30;1.80;;;;;;;11.91;84.77;98260.64;105124;1271;69692;-72
2022/09/15 00:54:40;;;;;;;7.90;1.90;;;;;;;11.84;85.34;98263.35;105085;1271;73421;-74
2022/09/15 00:57:31;;;;;;;9.60;1.90;;;;;;;11.79;85.55;98263.92;104904;1271;59799;-75
2022/09/15 01:00:22;;;;;;;7.80;1.70;;;;;;;11.76;86.09;98266.41;105143;1271;60077;-72
2022/09/15 01:03:10;;;;;;;7.20;1.80;;;;;;;11.73;86.26;98264.21;105099;1271;72016;-75
2022/09/15 01:06:39;;;;;;;7.00;1.90;;;;;;;11.70;86.26;98263.86;105137;1271;67823;-75
2022/09/15 01:09:46;;;;;;;7.30;1.70;;;;;;;11.65;86.68;98263.20;104141;1271;1768540;-75
2022/09/15 01:12:34;;;;;;;7.20;1.90;;;;;;;11.60;87.36;98258.23;105280;1271;61246;-75
2022/09/15 01:15:31;;;;;;;7.70;1.70;;;;;;;11.58;87.80;98258.80;105088;1271;59639;-73
2022/09/15 01:18:28;;;;;;;10.00;2.20;;;;;;;11.56;87.83;98254.70;105030;1271;74380;-74
2022/09/15 01:21:34;;;;;;;7.60;1.70;;;;;;;11.55;88.28;98249.17;105300;1271;68697;-75
2022/09/15 01:24:40;;;;;;;8.20;2.00;;;;;;;11.55;88.03;98249.34;105294;1271;70554;-75
2022/09/15 01:28:31;;;;;;;8.60;2.10;;;;;;;11.54;88.32;98240.19;105309;1271;60172;-75
2022/09/15 01:35:21;;;;;;;9.10;1.90;;;;;;;11.55;88.58;98234.38;104792;1278;74745;-73
2022/09/15 01:38:25;;;;;;;8.10;2.00;;;;;;;11.55;88.42;98233.89;104814;1277;70078;-73
2022/09/15 01:42:08;;;;;;;8.80;2.00;;;;;;;11.51;88.82;98226.50;104688;1278;72892;-74
2022/09/15 01:45:06;;;;;;;7.50;1.60;;;;;;;11.46;88.96;98226.22;104023;1284;60166;-75
2022/09/15 01:47:58;;;;;;;6.90;2.00;;;;;;;11.39;89.57;98227.86;104451;1284;60261;-74
2022/09/15 01:50:52;;;;;;;8.00;1.80;;;;;;;11.33;89.82;98221.98;103996;1284;74542;-76
2022/09/15 01:53:40;;;;;;;9.80;2.60;;;;;;;11.26;90.07;98221.28;104715;1285;69146;-78
2022/09/15 01:56:28;;;;;;;7.10;2.10;;;;;;;11.20;90.47;98222.66;103815;1283;72813;-79
2022/09/15 01:59:16;;;;;;;7.40;2.10;;;;;;;11.12;90.89;98223.83;103970;1283;59854;-77
2022/09/15 02:02:19;;;;;;;8.00;2.00;;;;;;;11.04;91.70;98218.67;104236;1284;62061;-77
2022/09/15 02:05:19;;;;;;;11.20;2.10;;;;;;;10.98;91.72;98222.17;103895;1284;73396;-77
2022/09/15 02:08:27;;;;;;;7.80;1.90;;;;;;;10.94;92.38;98219.27;104555;1279;68643;-76
2022/09/15 02:11:18;;;;;;;8.10;1.90;;;;;;;10.90;92.38;98216.66;104698;1277;74791;-75
2022/09/15 02:14:21;;;;;;;10.50;2.30;;;;;;;10.86;91.89;98211.16;104598;1278;59763;-75
2022/09/15 02:17:16;;;;;;;8.30;2.20;;;;;;;10.82;92.62;98213.98;104670;1277;61828;-75
2022/09/15 02:20:19;;;;;;;7.90;2.20;;;;;;;10.77;92.67;98214.23;105153;1271;73216;-76
2022/09/15 02:23:17;;;;;;;7.60;2.00;;;;;;;10.70;93.29;98218.61;105307;1271;67918;-75
2022/09/15 02:26:15;;;;;;;9.00;2.00;;;;;;;10.64;93.51;98213.41;105018;1271;74260;-77
2022/09/15 02:29:08;;;;;;;10.40;2.30;;;;;;;10.58;94.43;98208.42;104872;1271;59549;-77
2022/09/15 02:32:01;;;;;;;9.10;2.20;;;;;;;10.52;94.35;98209.73;105067;1269;60486;-75
2022/09/15 02:34:56;;;;;;;7.20;2.10;;;;;;;10.48;94.39;98205.85;104911;1271;74763;-75
2022/09/15 02:37:45;;;;;;;7.70;2.10;;;;;;;10.42;95.04;98203.33;104953;1271;69959;-77
2022/09/15 02:40:35;;;;;;;10.90;2.20;;;;;;;10.36;95.89;98200.91;105144;1271;73335;-77
2022/09/15 02:43:23;;;;;;;7.70;2.10;;;;;;;10.32;95.50;98201.90;105228;1271;60254;-77
2022/09/15 02:46:12;;;;;;;8.80;2.20;;;;;;;10.28;95.75;98203.02;105205;1271;61993;-79
2022/09/15 02:49:02;;;;;;;8.10;2.30;;;;;;;10.26;96.12;98199.94;105114;1271;73300;-78
2022/09/15 02:51:49;;;;;;;9.20;2.30;;;;;;;10.23;96.24;98201.18;105326;1271;69284;-76
2022/09/15 02:54:37;;;;;;;10.70;2.50;;;;;;;10.21;96.60;98198.83;105133;1271;72828;-77
2022/09/15 02:57:25;;;;;;;10.00;2.00;;;;;;;10.19;97.08;98199.87;105135;1271;59663;-79
2022/09/15 03:00:15;;;;;;;9.60;2.20;;;;;;;10.18;97.07;98195.33;105250;1271;61008;-77
2022/09/15 03:03:03;;;;;;;8.60;2.50;;;;;;;10.18;96.93;98191.65;104963;1271;74713;-77
2022/09/15 03:05:51;;;;;;;7.40;2.00;;;;;;;10.18;96.78;98192.40;105237;1271;67036;-79
2022/09/15 03:08:39;;;;;;;9.10;2.20;;;;;;;10.17;96.43;98194.77;105026;1271;74474;-79
2022/09/15 03:11:30;;;;;;;7.30;2.10;;;;;;;10.16;96.65;98194.70;105216;1271;61953;-76
2022/09/15 03:14:18;;;;;;;7.30;1.90;;;;;;;10.14;96.69;98186.41;105211;1271;59625;-76
2022/09/15 03:17:06;;;;;;;8.60;2.30;;;;;;;10.12;97.19;98184.85;104899;1274;73058;-75
2022/09/15 03:19:54;;;;;;;9.20;2.10;;;;;;;10.12;97.09;98181.69;105076;1272;68043;-76
2022/09/15 03:22:46;;;;;;;7.20;1.90;;;;;;;10.12;97.89;98182.95;105247;1271;73189;-76
2022/09/15 03:25:34;;;;;;;8.20;2.30;;;;;;;10.11;98.02;98177.33;105145;1271;60197;-76
2022/09/15 03:28:23;;;;;;;9.60;2.00;;;;;;;10.11;97.58;98178.08;104971;1271;60236;-76
2022/09/15 03:31:11;;;;;;;8.50;2.20;;;;;;;10.12;98.17;98172.32;105177;1271;73037;-74
2022/09/15 03:33:59;;;;;;;8.30;2.30;;;;;;;10.15;98.07;98173.75;105145;1272;68743;-77
2022/09/15 03:36:46;;;;;;;8.60;2.00;;;;;;;10.17;97.73;98169.12;105039;1272;72634;-77
2022/09/15 03:39:34;;;;;;;9.30;2.20;;;;;;;10.21;97.72;98165.66;104932;1271;59653;-75
2022/09/15 03:42:22;;;;;;;8.40;2.40;;;;;;;10.25;97.65;98164.38;104886;1271;62347;-76
2022/09/15 03:45:10;;;;;;;8.90;1.90;;;;;;;10.30;97.61;98164.41;104895;1271;72141;-75
2022/09/15 03:47:58;;;;;;;7.00;2.10;;;;;;;10.35;97.78;98156.16;104903;1271;69638;-76
2022/09/15 03:50:46;;;;;;;6.60;1.90;;;;;;;10.41;97.42;98160.23;104940;1271;72888;-76
2022/09/15 03:53:38;;;;;;;8.10;2.30;;;;;;;10.44;96.93;98153.90;104887;1271;60265;-74
2022/09/15 03:56:32;;;;;;;8.20;2.20;;;;;;;10.46;97.18;98153.46;104903;1271;59653;-74
2022/09/15 03:59:20;;;;;;;9.80;2.00;;;;;;;10.49;97.46;98155.65;105085;1272;74587;-74
2022/09/15 04:02:08;;;;;;;7.00;2.10;;;;;;;10.51;97.53;98153.63;104939;1271;68383;-74
2022/09/15 04:04:56;;;;;;;9.70;2.20;;;;;;;10.54;97.28;98152.64;105078;1272;72627;-73
2022/09/15 04:07:44;;;;;;;8.10;2.00;;;;;;;10.55;97.26;98153.30;104823;1271;59765;-74
2022/09/15 04:10:32;;;;;;;7.20;1.70;;;;;;;10.58;97.55;98148.80;104911;1271;60541;-74
2022/09/15 04:13:22;;;;;;;6.70;2.20;;;;;;;10.63;97.25;98144.77;104943;1271;74412;-76
2022/09/15 04:16:18;;;;;;;9.30;1.80;;;;;;;10.69;97.20;98144.38;105157;1271;68318;-75
2022/09/15 04:19:06;;;;;;;8.00;2.20;;;;;;;10.78;97.19;98150.23;105113;1271;74301;-73
2022/09/15 04:21:54;;;;;;;9.30;2.00;;;;;;;10.87;97.08;98147.84;104964;1272;59697;-74
2022/09/15 04:24:42;;;;;;;11.40;2.20;;;;;;;10.96;96.63;98148.59;105072;1271;59568;-74
2022/09/15 04:27:33;;;;;;;7.90;1.60;;;;;;;11.04;95.93;98147.50;105155;1271;73244;-73
2022/09/15 04:30:21;;;;;;;8.70;2.00;;;;;;;11.12;95.77;98146.17;105226;1273;68155;-76
2022/09/15 04:33:08;;;;;;;6.00;1.70;;;;;;;11.18;95.47;98143.89;104987;1271;74016;-77
2022/09/15 04:36:03;;;;;;;9.00;2.00;;;;;;;11.23;95.11;98139.26;105024;1271;59768;-76
2022/09/15 04:38:51;;;;;;;7.40;1.80;;;;;;;11.25;94.89;98137.45;105255;1271;61310;-75
2022/09/15 04:41:38;;;;;;;6.00;1.70;;;;;;;11.27;94.81;98136.69;104990;1271;72004;-73
2022/09/15 04:44:27;;;;;;;6.70;1.60;;;;;;;11.30;94.61;98131.61;104975;1271;69600;-74
2022/09/15 04:47:16;;;;;;;7.30;1.90;;;;;;;11.32;94.63;98132.74;105229;1271;72861;-75
2022/09/15 04:50:05;;;;;;;10.20;2.40;;;;;;;11.35;94.82;98133.13;104961;1271;61581;-75
2022/09/15 04:52:52;;;;;;;7.30;1.70;;;;;;;11.41;94.54;98128.33;104983;1271;60400;-76
2022/09/15 04:55:41;;;;;;;8.90;2.10;;;;;;;11.50;94.42;98127.31;104975;1271;74726;-73
2022/09/15 04:58:29;;;;;;;7.40;1.70;;;;;;;11.61;93.59;98127.07;105004;1271;68613;-74
2022/09/15 05:01:29;;;;;;;8.10;1.90;;;;;;;11.73;93.39;98129.06;104937;1271;74265;-74
2022/09/15 05:04:17;;;;;;;7.40;1.90;;;;;;;11.84;92.74;98128.33;105304;1271;59689;-75
2022/09/15 05:07:05;;;;;;;7.10;1.80;;;;;;;11.95;92.30;98128.05;105921;1271;61926;-78
2022/09/15 05:09:54;;;;;;;7.60;2.30;;;;;;;11.99;91.71;98123.47;105403;1271;72992;-78
2022/09/15 05:12:42;;;;;;;7.90;1.90;;;;;;;12.03;91.69;98123.62;105033;1271;66861;-77
2022/09/15 05:15:32;;;;;;;8.00;1.70;;;;;;;12.05;91.55;98127.44;105390;1271;72612;-78
2022/09/15 05:18:20;;;;;;;7.10;1.70;;;;;;;12.09;91.26;98120.89;105453;1271;59656;-77
2022/09/15 05:21:12;;;;;;;8.80;2.00;;;;;;;12.15;91.04;98119.70;105455;1271;59636;-78
2022/09/15 05:24:00;;;;;;;7.50;1.90;;;;;;;12.20;90.49;98116.97;105388;1271;74052;-76
2022/09/15 05:26:48;;;;;;;6.90;1.70;;;;;;;12.29;90.43;98115.41;105132;1271;68091;-76
2022/09/15 05:29:36;;;;;;;9.20;1.60;;;;;;;12.39;89.79;98118.34;105191;1271;71629;-76
2022/09/15 05:32:25;;;;;;;8.10;1.70;;;;;;;12.54;88.89;98109.65;105146;1271;59639;-76
2022/09/15 05:35:12;;;;;;;7.10;1.50;;;;;;;12.68;87.91;98102.53;105126;1271;60999;-76
2022/09/15 05:38:00;;;;;;;8.10;1.60;;;;;;;12.80;87.13;98096.11;105124;1271;71893;-74
2022/09/15 05:40:49;;;;;;;6.90;1.50;;;;;;;12.89;85.97;98082.97;105186;1271;68030;-72
2022/09/15 05:43:38;;;;;;;6.70;1.60;;;;;;;12.91;85.14;98080.98;105202;1271;74531;-74
2022/09/15 05:46:27;;;;;;;6.10;1.50;;;;;;;12.93;84.63;98086.56;105149;1271;59847;-75
2022/09/15 05:49:16;;;;;;;5.70;1.40;;;;;;;12.93;83.74;98084.39;105210;1271;61094;-75
2022/09/15 05:52:04;;;;;;;7.20;1.30;;;;;;;12.96;83.76;98086.98;105302;1271;74665;-74
2022/09/15 05:54:52;;;;;;;8.50;1.60;;;;;;;13.01;83.04;98086.96;105148;1271;68604;-76
2022/09/15 05:57:45;;;;;;;7.30;1.70;;;;;;;13.04;82.24;98087.83;105139;1271;73242;-74
2022/09/15 06:00:34;;;;;;;8.00;1.70;;;;;;;13.13;82.58;98079.48;105139;1271;60038;-74
2022/09/15 06:03:23;;;;;;;5.50;1.50;;;;;;;13.22;82.08;98077.82;105401;1271;59642;-75
2022/09/15 06:06:16;;;;;;;6.10;1.30;;;;;;;13.32;82.01;98080.35;104957;1271;74859;-74
2022/09/15 06:09:05;;;;;;;6.90;1.50;;;;;;;13.39;81.84;98081.32;105042;1271;68434;-76
2022/09/15 06:11:53;;;;;;;6.70;1.50;;;;;;;13.52;81.52;98080.45;105115;1272;74439;-75
2022/09/15 06:14:42;;;;;;;7.90;2.30;;;;;;;13.62;81.09;98082.09;105541;1271;59803;-74
2022/09/15 06:17:32;;;;;;;7.20;2.60;;;;;;;13.68;80.63;98082.70;105378;1271;60895;-76
2022/09/15 06:20:25;;;;;;;5.90;1.60;;;;;;;13.73;80.34;98088.51;105519;1271;72814;-76
2022/09/15 06:23:13;;;;;;;6.70;1.60;;;;;;;13.76;79.92;98088.30;105364;1271;69823;-75
2022/09/15 06:26:15;;;;;;;6.10;1.60;;;;;;;13.77;80.06;98087.56;105339;1271;73979;-74
2022/09/15 06:29:04;;;;;;;6.50;1.70;;;;;;;13.80;80.13;98090.65;105215;1271;59784;-75
2022/09/15 06:32:01;;;;;;;7.20;1.70;;;;;;;13.84;79.77;98087.52;105271;1271;59599;-75
2022/09/15 06:34:49;;;;;;;9.10;1.50;;;;;;;13.93;79.81;98083.30;105003;1271;71962;-74
2022/09/15 06:37:40;;;;;;;5.40;1.50;;;;;;;14.09;79.29;98086.06;105455;1271;68437;-75
2022/09/15 06:40:29;;;;;;;6.60;2.20;;;;;;;14.29;78.87;98088.02;105280;1271;74351;-75
2022/09/15 06:43:17;;;;;;;5.50;1.50;;;;;;;14.48;77.72;98084.33;105185;1271;59901;-75
2022/09/15 06:46:27;;;;;;;5.90;1.70;;;;;;;14.66;76.23;98083.10;105222;1271;60245;-76
2022/09/15 06:49:16;;;;;;;6.40;1.60;;;;;;;14.91;74.86;98079.38;104982;1271;73426;-74
2022/09/15 06:52:11;;;;;;;6.60;1.80;;;;;;;15.31;73.51;98071.65;104991;1274;69548;-78
2022/09/15 06:55:20;;;;;;;6.70;1.60;;;;;;;17.35;68.32;98063.41;105327;1272;71830;-77
2022/09/15 06:58:08;;;;;;;5.80;1.70;;;;;;;19.30;58.67;98058.19;105119;1271;59749;-75
2022/09/15 07:01:02;;;;;;;7.50;1.90;;;;;;;21.14;54.59;98058.27;105221;1271;61089;-75
2022/09/15 07:03:51;;;;;;;6.00;1.30;;;;;;;22.81;48.48;98056.53;105077;1272;73932;-76
2022/09/15 07:06:39;;;;;;;6.10;1.30;;;;;;;23.94;44.04;98058.08;105170;1271;66783;-78
2022/09/15 07:09:27;;;;;;;5.90;1.40;;;;;;;25.00;41.96;98056.66;105182;1271;71941;-72
2022/09/15 07:12:15;;;;;;;6.00;1.30;;;;;;;26.00;40.67;98063.85;105044;1271;59673;-75
2022/09/15 07:15:04;;;;;;;6.60;1.30;;;;;;;26.71;37.17;98057.13;105175;1271;62102;-75
2022/09/15 07:17:52;;;;;;;5.20;1.20;;;;;;;26.69;35.70;98056.37;105232;1271;74568;-77
2022/09/15 07:20:40;;;;;;;6.40;1.20;;;;;;;27.06;35.19;98060.80;105365;1271;67291;-74
2022/09/15 07:23:28;;;;;;;6.10;1.30;;;;;;;26.99;34.80;98063.16;105039;1271;72830;-74
2022/09/15 07:26:26;;;;;;;5.50;1.20;;;;;;;27.56;34.54;98066.90;105283;1271;59966;-74
2022/09/15 07:29:13;;;;;;;5.70;1.10;;;;;;;27.96;33.14;98072.74;105155;1271;59578;-72
2022/09/15 07:32:02;;;;;;;4.90;1.00;;;;;;;27.56;33.01;98070.11;105167;1271;73196;-73
2022/09/15 07:34:50;;;;;;;6.40;2.00;;;;;;;26.93;34.51;98072.23;105228;1271;69906;-76
2022/09/15 07:37:43;;;;;;;7.60;1.30;;;;;;;26.79;34.17;98072.23;105485;1271;71598;-78
2022/09/15 07:40:31;;;;;;;5.20;1.10;;;;;;;26.08;35.23;98073.42;105041;1271;59695;-76
2022/09/15 07:43:20;;;;;;;6.60;1.00;;;;;;;26.64;34.62;98064.70;105176;1271;62073;-72
2022/09/15 07:46:09;;;;;;;6.30;0.90;;;;;;;27.00;33.78;98060.05;105519;1271;73728;-73
2022/09/15 07:49:01;;;;;;;6.10;2.00;;;;;;;27.36;33.09;98063.25;105185;1271;68540;-74
2022/09/15 07:51:51;;;;;;;5.60;0.90;;;;;;;27.89;32.14;98067.63;105157;1271;72700;-74
2022/09/15 07:54:39;;;;;;;5.40;1.20;;;;;;;27.75;31.71;98067.59;105326;1271;59770;-76
2022/09/15 07:57:27;;;;;;;7.40;2.00;;;;;;;28.14;31.14;98071.83;105199;1271;59788;-74
2022/09/15 08:00:16;;;;;;;4.80;1.10;;;;;;;28.52;30.57;98070.86;105145;1271;73842;-77
2022/09/15 08:03:04;;;;;;;4.70;0.90;;;;;;;29.12;29.67;98071.61;105152;1271;69540;-76
2022/09/15 08:06:00;;;;;;;4.60;0.80;;;;;;;29.28;29.60;98070.85;105312;1271;72918;-75
2022/09/15 08:08:49;;;;;;;4.90;1.00;;;;;;;28.73;30.05;98073.09;105348;1271;59788;-75
2022/09/15 08:11:53;;;;;;;4.80;1.00;;;;;;;27.17;32.20;98070.97;105280;1271;62029;-73
2022/09/15 08:14:41;;;;;;;4.20;0.90;;;;;;;25.68;34.45;98081.86;105393;1271;73972;-73
2022/09/15 08:17:34;;;;;;;4.90;0.90;;;;;;;24.00;37.20;98083.53;105237;1271;66778;-74
2022/09/15 08:20:27;;;;;;;6.90;1.50;;;;;;;22.46;40.00;98085.32;105509;1271;72823;-74
2022/09/15 08:23:19;;;;;;;5.60;1.10;;;;;;;21.35;42.61;98091.05;105489;1271;59902;-74
2022/09/15 08:26:11;;;;;;;6.40;1.30;;;;;;;20.56;44.91;98088.56;105302;1271;60639;-75
2022/09/15 08:29:15;;;;;;;4.80;1.20;;;;;;;19.73;46.57;98089.88;105372;1271;72934;-74
2022/09/15 08:32:06;;;;;;;5.00;1.00;;;;;;;18.99;48.71;98089.65;105390;1271;68563;-72
2022/09/15 08:34:54;;;;;;;5.80;1.40;;;;;;;18.37;50.98;98086.27;105240;1271;72903;-76
2022/09/15 08:37:46;;;;;;;5.40;0.90;;;;;;;18.01;52.75;98087.02;105090;1271;59757;-75
2022/09/15 08:40:36;;;;;;;5.40;1.30;;;;;;;17.78;53.64;98082.67;105566;1271;60278;-74
2022/09/15 08:43:29;;;;;;;6.20;1.10;;;;;;;17.65;54.36;98086.54;105102;1271;73102;-76
2022/09/15 08:46:30;;;;;;;6.20;1.40;;;;;;;17.32;56.04;98086.40;105414;1271;66780;-77
2022/09/15 08:49:27;;;;;;;6.20;1.30;;;;;;;16.88;57.99;98086.05;105584;1271;72521;-79
2022/09/15 08:52:58;;;;;;;6.50;1.10;;;;;;;16.40;60.04;98092.28;105104;1271;59695;-72
2022/09/15 08:55:53;;;;;;;6.20;1.20;;;;;;;16.29;60.40;98088.67;105265;1271;59707;-77
2022/09/15 08:58:40;;;;;;;5.80;1.10;;;;;;;16.07;61.07;98084.37;105117;1271;74465;-76
2022/09/15 09:02:05;;;;;;;5.50;1.50;;;;;;;15.81;62.63;98087.73;105189;1271;69648;-75
2022/09/15 09:05:12;;;;;;;5.40;1.20;;;;;;;15.87;63.19;98082.63;105259;1271;73751;-75
2022/09/15 09:08:06;;;;;;;5.20;1.30;;;;;;;16.17;61.66;98085.69;105398;1271;59669;-75
2022/09/15 09:11:18;;;;;;;5.20;1.10;;;;;;;16.79;59.44;98088.04;105068;1271;60110;-77
2022/09/15 09:14:30;;;;;;;4.80;1.30;;;;;;;17.34;57.89;98085.89;105490;1271;73244;-75
2022/09/15 09:17:33;;;;;;;4.50;0.90;;;;;;;17.67;56.66;98078.50;105458;1271;68531;-75
2022/09/15 09:21:12;;;;;;;4.90;1.00;;;;;;;17.60;56.60;98077.33;105752;1271;71486;-79
2022/09/15 09:24:26;;;;;;;5.50;1.40;;;;;;;17.72;56.76;98075.61;106332;1271;59704;-79
2022/09/15 09:27:19;;;;;;;4.90;1.20;;;;;;;18.28;56.07;98075.79;106382;1270;60793;-78
2022/09/15 09:30:20;;;;;;;5.90;1.40;;;;;;;18.58;55.47;98072.13;105432;1271;74211;-78
2022/09/15 09:33:27;;;;;;;5.00;1.20;;;;;;;19.06;54.41;98073.19;105574;1271;66514;-77
2022/09/15 09:36:18;;;;;;;6.40;1.60;;;;;;;19.69;52.90;98079.34;105300;1271;74401;-79
2022/09/15 09:39:14;;;;;;;7.70;1.60;;;;;;;20.49;50.82;98078.81;105212;1271;60124;-78
2022/09/15 09:42:04;;;;;;;6.60;1.40;;;;;;;21.61;48.31;98080.47;106294;1271;60564;-78
2022/09/15 09:44:52;;;;;;;6.20;1.10;;;;;;;22.90;45.29;98071.66;106615;1271;74880;-77
2022/09/15 09:47:42;;;;;;;5.60;1.30;;;;;;;23.52;42.90;98074.78;106559;1271;69540;-78
2022/09/15 09:50:41;;;;;;;5.90;1.30;;;;;;;22.94;43.09;98067.02;106880;1271;72621;-77
2022/09/15 09:53:32;;;;;;;5.80;1.20;;;;;;;21.50;45.33;98070.88;105445;1269;59942;-79
2022/09/15 09:56:26;;;;;;;5.80;1.20;;;;;;;20.47;47.53;98063.17;105490;1271;60579;-78
2022/09/15 09:59:30;;;;;;;4.50;1.00;;;;;;;20.16;48.55;98070.54;105168;1271;71685;-78
2022/09/15 10:02:24;;;;;;;6.20;1.30;;;;;;;19.90;48.89;98077.46;105457;1271;69694;-79
2022/09/15 10:05:19;;;;;;;5.00;1.00;;;;;;;19.66;48.12;98071.52;105394;1271;72902;-78
2022/09/15 10:08:19;;;;;;;5.60;1.20;;;;;;;19.51;48.75;98069.75;105181;1271;59684;-77
2022/09/15 10:11:09;;;;;;;5.30;1.00;;;;;;;19.43;47.55;98066.58;105428;1271;59678;-79
2022/09/15 10:13:57;;;;;;;5.70;1.30;;;;;;;18.96;48.73;98060.04;105217;1271;74784;-78
2022/09/15 10:17:09;;;;;;;7.00;1.40;;;;;;;18.69;48.77;98059.56;105388;1271;68569;-79
2022/09/15 10:19:58;;;;;;;5.50;1.20;;;;;;;18.67;49.32;98053.70;105518;1271;72981;-79
2022/09/15 10:22:46;;;;;;;6.00;1.20;;;;;;;18.78;49.51;98056.13;105267;1271;59704;-75
2022/09/15 10:25:36;;;;;;;6.00;1.80;;;;;;;18.91;49.76;98051.91;105179;1271;60485;-77
2022/09/15 10:29:12;;;;;;;6.60;1.40;;;;;;;19.87;48.13;98049.14;105314;1271;74776;-77
2022/09/15 10:32:19;;;;;;;6.00;1.50;;;;;;;20.30;45.83;98043.41;105252;1271;66759;-76
2022/09/15 10:35:18;;;;;;;5.80;1.00;;;;;;;20.24;44.60;98045.62;105301;1271;74114;-76
2022/09/15 10:38:12;;;;;;;5.30;1.20;;;;;;;20.78;43.48;98047.23;105282;1271;59796;-76
2022/09/15 10:41:28;;;;;;;5.90;1.00;;;;;;;20.49;43.98;98046.06;105266;1271;61346;-78
2022/09/15 10:45:21;;;;;;;5.10;1.10;;;;;;;20.30;44.29;98044.92;105412;1271;73223;-78
2022/09/15 10:48:45;;;;;;;7.30;1.80;;;;;;;19.71;45.49;98046.10;105178;1271;68556;-73
2022/09/15 10:52:15;;;;;;;7.70;2.10;;;;;;;20.97;43.81;98046.35;105593;1271;71557;-72
2022/09/15 10:55:42;;;;;;;7.50;2.00;;;;;;;22.03;42.09;98039.48;105920;1271;59746;-74
2022/09/15 10:59:51;;;;;;;7.20;1.40;;;;;;;21.63;40.35;98037.27;105129;1271;60828;-71
2022/09/15 11:03:24;;;;;;;4.10;0.90;;;;;;;20.50;41.70;98048.64;104801;1278;74632;-73
2022/09/15 11:06:39;;;;;;;5.40;1.00;;;;;;;19.71;42.87;98039.84;104508;1278;68100;-76
2022/09/15 11:09:45;;;;;;;6.30;1.20;;;;;;;18.99;44.06;98041.77;104912;1278;71732;-75
2022/09/15 11:13:00;;;;;;;5.40;1.10;;;;;;;18.68;44.55;98047.73;104774;1277;59678;-75
2022/09/15 11:16:24;;;;;;;4.90;1.10;;;;;;;18.40;45.40;98059.80;104719;1277;60608;-75
2022/09/15 11:19:34;;;;;;;5.70;1.10;;;;;;;18.24;46.16;98059.45;104894;1277;72442;-73
2022/09/15 11:22:30;;;;;;;6.70;1.20;;;;;;;18.43;45.77;98059.00;105061;1277;69516;-74
2022/09/15 11:25:26;;;;;;;5.80;1.20;;;;;;;18.80;45.47;98067.35;104759;1278;70608;-73
2022/09/15 11:28:26;;;;;;;6.90;1.00;;;;;;;18.73;45.61;98061.30;104783;1277;59944;-72
2022/09/15 11:31:23;;;;;;;6.70;1.30;;;;;;;18.65;45.67;98066.89;104787;1278;62301;-71
2022/09/15 11:34:25;;;;;;;6.10;1.30;;;;;;;18.51;46.02;98056.36;105004;1271;72031;-73
2022/09/15 11:37:20;;;;;;;5.80;1.00;;;;;;;18.60;46.15;98054.09;105358;1271;68090;-72
2022/09/15 11:40:32;;;;;;;5.80;1.20;;;;;;;18.58;46.12;98055.39;105031;1271;73232;-71
2022/09/15 11:43:49;;;;;;;9.10;1.60;;;;;;;18.66;46.39;98057.27;105224;1271;59752;-72
2022/09/15 11:47:12;;;;;;;5.70;1.20;;;;;;;19.06;46.25;98062.17;105174;1271;60631;-76
2022/09/15 11:50:09;;;;;;;5.30;1.10;;;;;;;20.01;44.37;98052.69;105261;1271;73655;-74
2022/09/15 11:53:08;;;;;;;6.00;0.90;;;;;;;20.58;42.68;98054.23;105324;1270;67337;-74
2022/09/15 11:56:19;;;;;;;5.00;1.10;;;;;;;20.95;42.09;98059.62;105288;1271;72872;-75
2022/09/15 11:59:19;;;;;;;6.20;1.30;;;;;;;21.31;40.38;98058.51;105576;1271;59746;-75
2022/09/15 12:02:29;;;;;;;6.20;1.00;;;;;;;21.70;39.81;98065.73;105128;1271;60305;-75
2022/09/15 12:06:03;;;;;;;5.60;1.00;;;;;;;21.69;39.29;98065.39;104979;1271;73099;-76
2022/09/15 12:09:01;;;;;;;4.30;1.00;;;;;;;21.86;39.00;98063.27;104900;1277;67826;-76
2022/09/15 12:12:03;;;;;;;5.40;1.10;;;;;;;21.24;40.37;98064.85;104764;1277;71519;-75
2022/09/15 12:14:51;;;;;;;5.70;1.00;;;;;;;20.83;41.34;98070.11;104506;1277;59963;-75
2022/09/15 12:18:16;;;;;;;4.10;0.70;;;;;;;20.60;41.67;98073.86;104495;1278;60663;-76
2022/09/15 12:21:34;;;;;;;6.10;1.10;;;;;;;20.54;42.78;98071.71;104654;1278;75115;-76
2022/09/15 12:24:44;;;;;;;5.10;1.20;;;;;;;20.63;44.36;98075.55;104861;1280;68157;-76
2022/09/15 12:27:35;;;;;;;5.00;1.00;;;;;;;20.52;46.06;98082.80;104470;1280;73050;-75
2022/09/15 12:30:41;;;;;;;7.40;1.30;;;;;;;20.23;46.98;98077.91;104444;1281;59634;-75
2022/09/15 12:33:58;;;;;;;5.00;1.10;;;;;;;19.87;47.53;98075.60;104676;1281;61056;-75
2022/09/15 12:36:52;;;;;;;8.20;1.20;;;;;;;19.65;48.67;98077.02;104403;1280;73080;-75
2022/09/15 12:39:40;;;;;;;6.40;1.30;;;;;;;19.53;48.64;98081.25;104498;1281;67821;-75
2022/09/15 12:42:30;;;;;;;6.90;1.30;;;;;;;19.35;49.07;98071.09;104686;1281;72692;-79
2022/09/15 12:45:26;;;;;;;4.90;1.10;;;;;;;19.15;50.06;98073.55;104786;1271;59718;-78
2022/09/15 12:48:32;;;;;;;7.20;1.60;;;;;;;18.75;48.43;98066.92;105059;1271;59692;-79
2022/09/15 12:51:26;;;;;;;5.80;1.20;;;;;;;18.49;47.84;98076.77;105218;1271;74896;-78
2022/09/15 12:54:26;;;;;;;5.60;0.90;;;;;;;18.23;47.29;98081.91;105246;1271;67842;-77
2022/09/15 12:57:35;;;;;;;6.70;1.10;;;;;;;18.03;51.26;98095.58;104906;1271;72613;-76
2022/09/15 13:00:38;;;;;;;6.10;1.20;;;;;;;17.81;53.05;98080.55;105296;1271;59671;-75
2022/09/15 13:03:49;;;;;;;5.90;1.10;;;;;;;17.63;53.89;98068.92;105155;1271;59710;-77
2022/09/15 13:07:51;;;;;;;7.20;1.10;;;;;;;17.69;54.37;98075.27;105306;1271;71695;-77
2022/09/15 13:11:07;;;;;;;6.60;1.20;;;;;;;17.67;54.86;98081.06;103428;1280;1628383;-77
2022/09/15 13:14:02;;;;;;;5.20;1.10;;;;;;;17.53;55.17;98074.75;104203;1281;75175;-76
2022/09/15 13:17:05;;;;;;;6.10;1.10;;;;;;;17.38;56.03;98073.34;104817;1279;60606;-75
2022/09/15 13:19:58;;;;;;;6.60;1.10;;;;;;;17.14;55.95;98075.02;104721;1281;60824;-76
2022/09/15 13:22:55;;;;;;;6.10;1.30;;;;;;;17.07;56.37;98074.02;104812;1280;73737;-77
2022/09/15 13:25:45;;;;;;;8.00;1.50;;;;;;;17.03;56.66;98072.79;104452;1280;68143;-75
2022/09/15 13:28:34;;;;;;;6.70;1.20;;;;;;;17.07;57.21;98069.80;104389;1279;73491;-75
2022/09/15 13:31:52;;;;;;;6.90;1.80;;;;;;;17.26;55.66;98068.26;104477;1280;59771;-76
2022/09/15 13:35:00;;;;;;;5.70;1.30;;;;;;;17.37;54.08;98069.96;104531;1280;59681;-79
2022/09/15 13:38:08;;;;;;;6.50;1.40;;;;;;;17.53;53.78;98072.80;104421;1279;73677;-77
2022/09/15 13:41:39;;;;;;;6.40;1.30;;;;;;;17.71;53.71;98069.87;104514;1280;68634;-77
2022/09/15 13:44:36;;;;;;;5.40;1.40;;;;;;;17.60;54.37;98074.48;104668;1271;73307;-75